Time;durP1;ratioP1;P1;durP2;ratioP2;P2;SDS_P1;SDS_P2;PMS_P1;PMS_P2;Temp;Humidity;BMP_temperature;BMP_pressure;BME280_temperature;BME280_humidity;BME280_pressure;Samples;Min_cycle;Max_cycle;Signal;HPM_P1;HPM_P2
2022/11/13 00:02:08;;;;;;;;;6.00;4.00;;;;;6.53;73.59;101031.41;5137814;27;8829;-59
2022/11/13 00:04:36;;;;;;;;;3.00;3.00;;;;;6.53;73.54;101036.69;5137122;27;8818;-58
2022/11/13 00:07:04;;;;;;;;;9.20;4.80;;;;;6.51;73.41;101028.81;5136834;27;8825;-58
2022/11/13 00:09:32;;;;;;;;;6.00;6.00;;;;;6.50;73.68;101031.53;5136695;27;8833;-58
2022/11/13 00:11:59;;;;;;;;;6.80;6.80;;;;;6.47;73.58;101029.03;5136423;27;8833;-58
2022/11/13 00:14:28;;;;;;;;;4.80;4.00;;;;;6.44;73.56;101032.69;5136651;27;8837;-59
2022/11/13 00:16:56;;;;;;;;;3.80;3.80;;;;;6.41;73.57;101035.47;5136731;27;8914;-58
2022/11/13 00:19:24;;;;;;;;;6.00;6.00;;;;;6.38;73.71;101029.47;5136576;27;8806;-58
2022/11/13 00:21:53;;;;;;;;;4.80;4.00;;;;;6.34;73.97;101027.88;5137562;27;9714;-58
2022/11/13 00:24:21;;;;;;;;;4.40;4.40;;;;;6.29;73.85;101024.59;5153917;27;8811;-59
2022/11/13 00:26:49;;;;;;;;;6.20;5.60;;;;;6.26;73.86;101024.72;5158075;27;8842;-59
2022/11/13 00:29:17;;;;;;;;;6.00;6.00;;;;;6.21;74.17;101024.91;5144619;27;8813;-58
2022/11/13 00:31:44;;;;;;;;;6.00;5.60;;;;;6.18;73.63;101024.19;5137135;27;8844;-58
2022/11/13 00:34:12;;;;;;;;;0.80;0.80;;;;;6.15;74.18;101021.69;5137300;27;8890;-58
2022/11/13 00:37:00;;;;;;;;;4.00;4.00;;;;;6.11;74.37;101015.69;5137148;27;8826;-58
2022/11/13 00:39:28;;;;;;;;;6.40;6.40;;;;;6.09;73.99;101016.69;5137531;27;8866;-59
2022/11/13 00:41:55;;;;;;;;;5.20;4.00;;;;;6.08;74.34;101021.09;5137616;27;9582;-59
2022/11/13 00:44:23;;;;;;;;;6.00;4.40;;;;;6.08;74.12;101014.97;5136893;27;8826;-58
2022/11/13 00:46:51;;;;;;;;;7.00;7.00;;;;;6.06;74.25;101014.19;5137269;27;8809;-59
2022/11/13 00:49:23;;;;;;;;;5.60;4.80;;;;;6.05;73.83;101012.44;5136921;27;8809;-58
2022/11/13 00:51:51;;;;;;;;;8.00;7.80;;;;;6.02;74.09;101015.22;5136920;27;8840;-59
2022/11/13 00:54:19;;;;;;;;;9.00;8.20;;;;;6.03;74.32;101001.06;5136831;27;8838;-58
2022/11/13 00:56:46;;;;;;;;;7.60;6.40;;;;;6.04;73.98;101005.44;5136190;27;8822;-58
2022/11/13 00:59:14;;;;;;;;;6.00;3.80;;;;;6.07;73.82;101002.69;5135377;27;8841;-59
2022/11/13 01:01:42;;;;;;;;;6.80;6.80;;;;;6.09;74.15;100988.47;5136305;27;8802;-58
2022/11/13 01:04:10;;;;;;;;;9.00;9.00;;;;;6.12;73.40;100993.59;5136728;27;8826;-58
2022/11/13 01:06:37;;;;;;;;;5.40;4.40;;;;;6.16;73.78;100996.97;5136586;27;8825;-59
2022/11/13 01:09:05;;;;;;;;;6.40;6.40;;;;;6.24;73.62;100992.19;5136759;27;8841;-56
2022/11/13 01:11:32;;;;;;;;;5.60;4.80;;;;;6.30;73.52;100992.75;5136939;27;8817;-58
2022/11/13 01:14:00;;;;;;;;;1.40;1.00;;;;;6.36;73.24;100986.34;5136686;27;8853;-59
2022/11/13 01:16:28;;;;;;;;;7.00;4.40;;;;;6.40;73.28;100990.56;5136834;27;8833;-58
2022/11/13 01:18:55;;;;;;;;;3.60;3.60;;;;;6.41;73.34;100994.91;5136922;27;8826;-59
2022/11/13 01:21:23;;;;;;;;;6.40;6.40;;;;;6.42;72.92;100996.63;5137029;27;8919;-59
2022/11/13 01:23:50;;;;;;;;;1.00;0.80;;;;;6.42;72.97;101000.16;5136908;27;8825;-58
2022/11/13 01:26:19;;;;;;;;;7.40;7.40;;;;;6.41;73.02;100998.44;5136610;27;8945;-59
2022/11/13 01:28:47;;;;;;;;;6.40;6.00;;;;;6.40;73.36;100999.38;5136081;27;8783;-59
2022/11/13 01:31:15;;;;;;;;;5.60;4.00;;;;;6.38;73.19;100995.91;5136609;27;8806;-59
2022/11/13 01:33:43;;;;;;;;;7.40;7.40;;;;;6.36;72.96;100995.13;5136653;27;8852;-58
2022/11/13 01:36:11;;;;;;;;;6.00;6.00;;;;;6.31;73.51;100986.53;5136655;27;8818;-59
2022/11/13 01:38:41;;;;;;;;;2.80;2.20;;;;;6.29;72.98;100985.75;5136817;27;8874;-58
2022/11/13 01:41:09;;;;;;;;;7.00;6.00;;;;;6.25;73.08;100989.50;5136849;27;8806;-59
2022/11/13 01:43:36;;;;;;;;;6.60;6.00;;;;;6.20;73.57;100983.53;5136282;27;8894;-59
2022/11/13 01:46:04;;;;;;;;;4.00;4.00;;;;;6.17;73.31;100985.47;5142669;27;8943;-58
2022/11/13 01:48:31;;;;;;;;;3.60;3.20;;;;;6.13;73.32;100978.56;5157111;27;8827;-59
2022/11/13 01:51:00;;;;;;;;;4.00;3.00;;;;;6.06;73.55;100974.53;5157206;27;8808;-59
2022/11/13 01:53:28;;;;;;;;;4.00;4.00;;;;;5.98;74.11;100972.22;5157220;27;9505;-59
2022/11/13 01:55:56;;;;;;;;;6.20;4.80;;;;;5.90;73.53;100965.53;5156939;27;8803;-58
2022/11/13 01:58:24;;;;;;;;;7.00;6.20;;;;;5.85;74.06;100973.66;5152748;27;8821;-58
2022/11/13 02:00:52;;;;;;;;;6.00;6.00;;;;;5.81;73.87;100963.31;5135823;27;8817;-58
2022/11/13 02:03:19;;;;;;;;;6.20;6.20;;;;;5.81;74.40;100963.31;5136209;27;8830;-58
2022/11/13 02:05:47;;;;;;;;;7.00;6.00;;;;;5.80;73.80;100962.47;5136696;27;9619;-59
2022/11/13 02:08:15;;;;;;;;;4.40;2.80;;;;;5.81;74.28;100952.72;5136336;27;8830;-58
2022/11/13 02:10:43;;;;;;;;;4.00;4.00;;;;;5.80;74.30;100954.53;5139705;27;8837;-58
2022/11/13 02:13:10;;;;;;;;;7.80;7.80;;;;;5.78;73.79;100947.56;5139738;27;8909;-59
2022/11/13 02:15:39;;;;;;;;;5.20;4.00;;;;;5.75;74.16;100942.38;5139881;27;8882;-59
2022/11/13 02:18:07;;;;;;;;;6.20;6.20;;;;;5.70;73.92;100945.25;5139862;27;8852;-59
2022/11/13 02:20:35;;;;;;;;;4.80;3.60;;;;;5.67;74.46;100947.16;5139852;27;8814;-59
2022/11/13 02:23:03;;;;;;;;;3.40;3.20;;;;;5.62;74.39;100946.53;5140012;27;8822;-58
2022/11/13 02:25:31;;;;;;;;;4.00;3.80;;;;;5.58;74.52;100940.50;5139497;27;8842;-58
2022/11/13 02:27:58;;;;;;;;;0.80;0.20;;;;;5.54;74.29;100938.06;5139744;27;8874;-58
2022/11/13 02:30:26;;;;;;;;;8.60;4.80;;;;;5.50;74.28;100945.25;5139863;27;8833;-58
2022/11/13 02:32:54;;;;;;;;;6.40;6.40;;;;;5.47;74.61;100941.91;5139726;27;8833;-59
2022/11/13 02:35:21;;;;;;;;;6.60;4.40;;;;;5.44;74.71;100939.38;5138822;27;8821;-59
2022/11/13 02:37:49;;;;;;;;;6.20;6.00;;;;;5.41;74.71;100942.16;5138087;27;8813;-57
2022/11/13 02:40:17;;;;;;;;;3.00;2.60;;;;;5.37;74.68;100935.28;5139204;27;8860;-59
2022/11/13 02:42:45;;;;;;;;;9.20;7.00;;;;;5.35;74.31;100942.41;5139013;27;8814;-58
2022/11/13 02:45:12;;;;;;;;;6.60;6.60;;;;;5.32;74.62;100942.56;5139159;27;8814;-59
2022/11/13 02:47:40;;;;;;;;;5.60;4.00;;;;;5.30;74.42;100939.09;5139030;27;8821;-58
2022/11/13 02:50:07;;;;;;;;;6.60;6.60;;;;;5.29;74.77;100938.25;5139218;27;8809;-59
2022/11/13 02:52:35;;;;;;;;;3.40;2.40;;;;;5.26;74.62;100941.00;5139016;27;8817;-58
2022/11/13 02:55:03;;;;;;;;;8.40;8.20;;;;;5.24;74.31;100936.72;5139202;27;8830;-59
2022/11/13 02:57:30;;;;;;;;;7.00;6.00;;;;;5.21;74.93;100929.78;5138259;27;8841;-58
2022/11/13 02:59:58;;;;;;;;;7.00;7.00;;;;;5.19;74.74;100929.00;5137673;27;8874;-59
2022/11/13 03:02:26;;;;;;;;;6.20;5.60;;;;;5.16;74.73;100937.03;5137479;27;8886;-58
2022/11/13 03:04:53;;;;;;;;;6.00;6.00;;;;;5.14;74.68;100935.38;5137881;27;8821;-59
2022/11/13 03:07:39;;;;;;;;;3.00;2.60;;;;;5.10;74.92;100929.38;5138682;27;8848;-58
2022/11/13 03:10:07;;;;;;;;;6.00;6.00;;;;;5.06;74.41;100937.47;5137758;27;8818;-58
2022/11/13 03:12:34;;;;;;;;;5.20;5.20;;;;;5.03;74.78;100929.69;5138782;27;8822;-59
2022/11/13 03:15:04;;;;;;;;;6.00;6.00;;;;;5.02;74.59;100933.28;5138562;27;8829;-59
2022/11/13 03:17:31;;;;;;;;;6.20;6.20;;;;;4.99;75.00;100925.47;5138853;27;8814;-59
2022/11/13 03:19:59;;;;;;;;;5.20;5.20;;;;;4.95;75.10;100929.16;5138755;27;8818;-59
2022/11/13 03:22:27;;;;;;;;;7.00;6.40;;;;;4.92;74.91;100926.63;5138621;27;9457;-59
2022/11/13 03:24:55;;;;;;;;;3.60;3.00;;;;;4.90;75.28;100928.47;5159462;27;8909;-59
2022/11/13 03:27:25;;;;;;;;;8.20;6.60;;;;;4.88;74.89;100928.53;5159334;27;8807;-59
2022/11/13 03:29:53;;;;;;;;;6.00;5.60;;;;;4.86;74.79;100924.25;5142974;27;8802;-59
2022/11/13 03:32:20;;;;;;;;;4.00;4.00;;;;;4.83;74.73;100911.19;5138277;27;8922;-58
2022/11/13 03:34:48;;;;;;;;;7.00;6.20;;;;;4.80;74.95;100920.06;5138637;27;8817;-58
2022/11/13 03:37:15;;;;;;;;;6.00;4.00;;;;;4.77;75.12;100914.06;5138595;27;8809;-59
2022/11/13 03:39:44;;;;;;;;;4.00;3.60;;;;;4.73;74.97;100915.13;5138474;27;8932;-58
2022/11/13 03:42:12;;;;;;;;;4.00;4.00;;;;;4.72;75.38;100916.88;5138600;27;8822;-58
2022/11/13 03:44:40;;;;;;;;;3.20;2.20;;;;;4.70;74.84;100915.22;5138684;27;9493;-59
2022/11/13 03:47:07;;;;;;;;;5.20;5.20;;;;;4.66;74.97;100908.38;5138290;27;8806;-59
2022/11/13 03:49:35;;;;;;;;;5.20;5.20;;;;;4.61;75.00;100911.19;5138115;27;8818;-59
2022/11/13 03:52:03;;;;;;;;;0.60;0.60;;;;;4.55;75.00;100910.56;5138206;27;8830;-58
2022/11/13 03:54:30;;;;;;;;;3.80;3.80;;;;;4.51;75.60;100903.72;5156011;27;8812;-58
2022/11/13 03:56:58;;;;;;;;;5.60;4.00;;;;;4.46;75.90;100905.66;5158866;27;8799;-58
2022/11/13 03:59:26;;;;;;;;;3.80;3.60;;;;;4.44;75.70;100904.88;5146820;27;8798;-58
2022/11/13 04:01:53;;;;;;;;;3.00;3.00;;;;;4.42;75.26;100909.34;5138142;27;8829;-59
2022/11/13 04:04:21;;;;;;;;;4.00;4.00;;;;;4.40;75.56;100900.66;5137692;27;8829;-58
2022/11/13 04:06:49;;;;;;;;;3.00;2.60;;;;;4.36;75.70;100893.78;5138082;27;8830;-58
2022/11/13 04:09:17;;;;;;;;;3.40;3.00;;;;;4.34;75.88;100903.53;5137567;27;8911;-58
2022/11/13 04:11:44;;;;;;;;;2.20;2.20;;;;;4.31;75.78;100906.25;5137489;27;8890;-58
2022/11/13 04:14:12;;;;;;;;;3.00;3.00;;;;;4.28;75.88;100894.06;5137297;27;8845;-58
2022/11/13 04:16:39;;;;;;;;;4.00;4.00;;;;;4.28;75.31;100894.06;5137853;27;8910;-58
2022/11/13 04:19:07;;;;;;;;;5.20;4.00;;;;;4.26;75.81;100888.00;5138096;27;8837;-59
2022/11/13 04:21:35;;;;;;;;;4.40;3.20;;;;;4.29;75.38;100900.19;5137581;27;8826;-59
2022/11/13 04:24:02;;;;;;;;;4.00;4.00;;;;;4.29;75.32;100884.38;5151739;27;8868;-58
2022/11/13 04:26:30;;;;;;;;;4.00;3.20;;;;;4.30;75.28;100886.09;5158425;27;8815;-59
2022/11/13 04:29:03;;;;;;;;;2.60;2.60;;;;;4.31;75.29;100879.91;5150025;27;8822;-58
2022/11/13 04:31:30;;;;;;;;;1.00;1.00;;;;;4.31;75.38;100880.78;5136846;27;8790;-58
2022/11/13 04:33:58;;;;;;;;;3.00;3.00;;;;;4.31;75.15;100880.78;5137713;27;8809;-58
2022/11/13 04:36:26;;;;;;;;;3.00;3.00;;;;;4.32;75.75;100877.22;5137194;27;8879;-58
2022/11/13 04:38:53;;;;;;;;;2.20;1.00;;;;;4.32;75.35;100881.63;5137241;27;8922;-58
2022/11/13 04:44:06;;;;;;;;;3.40;2.60;;;;;4.35;74.58;100877.06;5137514;27;8814;-58
2022/11/13 04:46:34;;;;;;;;;3.20;3.20;;;;;4.37;74.94;100872.63;5137390;27;8833;-59
2022/11/13 04:49:02;;;;;;;;;5.80;5.20;;;;;4.39;75.51;100868.16;5137176;27;8898;-58
2022/11/13 04:51:29;;;;;;;;;4.00;4.00;;;;;4.42;75.02;100861.91;5137303;27;8830;-59
2022/11/13 04:53:57;;;;;;;;;1.40;1.40;;;;;4.43;74.80;100863.59;5149926;27;8804;-58
2022/11/13 04:56:27;;;;;;;;;6.40;5.20;;;;;4.44;75.09;100858.28;5157824;27;8816;-59
2022/11/13 04:58:55;;;;;;;;;4.00;3.80;;;;;4.44;74.72;100855.66;5151189;27;8894;-58
2022/11/13 05:01:22;;;;;;;;;5.20;4.00;;;;;4.46;74.74;100855.56;5136532;27;8857;-58
2022/11/13 05:03:50;;;;;;;;;4.40;3.60;;;;;4.45;75.29;100867.03;5136763;27;8798;-58
2022/11/13 05:06:17;;;;;;;;;4.40;4.40;;;;;4.46;75.24;100858.19;5136856;27;9477;-58
2022/11/13 05:08:47;;;;;;;;;5.60;4.20;;;;;4.46;75.25;100847.66;5136946;27;8830;-58
2022/11/13 05:11:14;;;;;;;;;4.00;3.20;;;;;4.45;74.75;100843.31;5137098;27;8898;-58
2022/11/13 05:13:42;;;;;;;;;3.00;3.00;;;;;4.46;75.15;100843.25;5136655;27;8914;-57
2022/11/13 05:16:09;;;;;;;;;4.80;4.80;;;;;4.44;74.88;100853.00;5136821;27;8806;-59
2022/11/13 05:18:37;;;;;;;;;3.00;3.00;;;;;4.42;75.22;100852.19;5137076;27;8821;-58
2022/11/13 05:21:06;;;;;;;;;5.60;4.80;;;;;4.40;75.20;100843.50;5137285;27;8826;-58
2022/11/13 05:23:33;;;;;;;;;5.60;3.80;;;;;4.39;74.84;100840.91;5136652;27;8809;-59
2022/11/13 05:26:01;;;;;;;;;4.00;4.00;;;;;4.36;74.86;100831.38;5136736;27;8857;-59
2022/11/13 05:28:28;;;;;;;;;4.40;4.20;;;;;4.36;74.92;100841.91;5136198;27;9580;-58
2022/11/13 05:30:56;;;;;;;;;4.00;3.80;;;;;4.34;75.26;100837.63;5136677;27;8810;-58
2022/11/13 05:33:25;;;;;;;;;3.00;3.00;;;;;4.32;74.70;100834.16;5136800;27;8909;-57
2022/11/13 05:35:52;;;;;;;;;1.40;1.40;;;;;4.29;74.89;100834.28;5136097;27;8818;-58
2022/11/13 05:38:20;;;;;;;;;3.20;3.20;;;;;4.27;75.39;100825.59;5136711;27;8841;-58
2022/11/13 05:40:47;;;;;;;;;4.80;4.40;;;;;4.24;74.80;100828.34;5136380;27;8818;-58
2022/11/13 05:43:15;;;;;;;;;4.80;4.80;;;;;4.21;75.40;100815.28;5136582;27;8809;-58
2022/11/13 05:45:45;;;;;;;;;3.80;3.80;;;;;4.18;75.42;100816.28;5140438;27;8845;-58
2022/11/13 05:48:12;;;;;;;;;3.80;3.60;;;;;4.15;75.55;100816.41;5140888;27;8894;-57
2022/11/13 05:50:40;;;;;;;;;4.00;4.00;;;;;4.14;75.10;100816.47;5140789;27;8814;-59
2022/11/13 05:53:07;;;;;;;;;2.60;2.60;;;;;4.12;75.16;100805.13;5140738;27;8806;-58
2022/11/13 05:55:35;;;;;;;;;4.00;4.00;;;;;4.07;75.65;100801.81;5140473;27;8952;-58
2022/11/13 05:58:03;;;;;;;;;5.60;5.60;;;;;4.00;75.44;100792.44;5139970;27;8810;-59
2022/11/13 06:00:31;;;;;;;;;1.80;1.80;;;;;3.95;76.03;100794.41;5140487;27;8822;-58
2022/11/13 06:02:58;;;;;;;;;3.00;3.00;;;;;3.91;75.48;100801.56;5140349;27;8810;-58
2022/11/13 06:05:26;;;;;;;;;3.20;3.20;;;;;3.90;75.53;100791.09;5140563;27;8834;-58
2022/11/13 06:07:54;;;;;;;;;3.40;3.00;;;;;3.89;75.49;100798.13;5139965;27;8890;-58
2022/11/13 06:10:23;;;;;;;;;1.80;1.80;;;;;3.89;75.88;100789.38;5140375;27;8829;-59
2022/11/13 06:12:50;;;;;;;;;1.00;1.00;;;;;3.86;75.71;100782.44;5140397;27;8806;-58
2022/11/13 06:15:18;;;;;;;;;2.60;1.80;;;;;3.83;75.84;100785.22;5140166;27;8821;-59
2022/11/13 06:17:46;;;;;;;;;6.80;5.60;;;;;3.81;75.73;100784.38;5140061;27;8875;-58
2022/11/13 06:20:13;;;;;;;;;3.00;2.60;;;;;3.79;75.97;100788.00;5140130;27;8833;-58
2022/11/13 06:22:43;;;;;;;;;0.60;0.20;;;;;3.78;76.15;100790.69;5142432;27;8794;-59
2022/11/13 06:25:11;;;;;;;;;3.20;3.20;;;;;3.75;75.91;100786.41;5160826;27;9723;-58
2022/11/13 06:27:38;;;;;;;;;6.00;5.60;;;;;3.74;75.94;100789.97;5152952;27;8809;-58
2022/11/13 06:30:06;;;;;;;;;1.00;1.00;;;;;3.72;75.99;100788.28;5140100;27;9493;-58
2022/11/13 06:32:33;;;;;;;;;1.40;1.40;;;;;3.71;76.01;100789.22;5139540;27;8926;-56
2022/11/13 06:35:02;;;;;;;;;2.60;2.60;;;;;3.69;75.65;100786.63;5139400;27;8822;-58
2022/11/13 06:37:30;;;;;;;;;3.00;3.00;;;;;3.70;75.78;100783.09;5139652;27;8814;-58
2022/11/13 06:40:01;;;;;;;;;3.00;2.20;;;;;3.71;75.41;100778.69;5139759;27;8833;-58
2022/11/13 06:42:28;;;;;;;;;1.80;1.00;;;;;3.72;75.14;100777.75;5139821;27;9484;-58
2022/11/13 06:44:56;;;;;;;;;4.00;4.00;;;;;3.73;75.88;100773.28;5139464;27;8887;-56
2022/11/13 06:47:24;;;;;;;;;0.00;0.00;;;;;3.74;75.48;100761.00;5139873;27;8852;-58
2022/11/13 06:49:52;;;;;;;;;2.40;2.40;;;;;3.75;75.53;100767.97;5139410;27;8814;-58
2022/11/13 06:52:20;;;;;;;;;6.60;6.20;;;;;3.77;75.42;100767.91;5139211;27;8818;-59
2022/11/13 06:54:47;;;;;;;;;4.40;4.40;;;;;3.78;75.68;100768.72;5158860;27;8803;-58
2022/11/13 06:57:15;;;;;;;;;6.20;6.20;;;;;3.80;75.03;100761.59;5154923;27;8874;-58
2022/11/13 06:59:43;;;;;;;;;6.00;6.00;;;;;3.82;75.53;100770.28;5139154;27;8971;-58
2022/11/13 07:02:11;;;;;;;;;5.60;4.40;;;;;3.82;75.60;100770.28;5138923;27;8902;-58
2022/11/13 07:04:39;;;;;;;;;4.60;3.60;;;;;3.81;75.57;100760.69;5139051;27;9511;-58
2022/11/13 07:07:06;;;;;;;;;3.00;3.00;;;;;3.80;75.51;100766.03;5138861;27;8810;-58
2022/11/13 07:09:34;;;;;;;;;4.00;4.00;;;;;3.81;75.85;100757.19;5139252;27;8834;-58
2022/11/13 07:12:02;;;;;;;;;3.00;3.00;;;;;3.82;75.68;100756.28;5139200;27;8805;-59
2022/11/13 07:14:29;;;;;;;;;3.00;3.00;;;;;3.84;75.05;100757.06;5138832;27;8906;-57
2022/11/13 07:16:57;;;;;;;;;1.00;1.00;;;;;3.89;75.46;100748.06;5138457;27;8833;-57
2022/11/13 07:19:36;;;;;;;;;4.00;4.00;;;;;3.94;74.66;100747.88;5138906;27;8833;-58
2022/11/13 07:22:04;;;;;;;;;1.80;1.80;;;;;4.00;75.20;100750.28;5138368;27;8838;-56
2022/11/13 07:24:32;;;;;;;;;2.60;2.60;;;;;4.02;74.58;100741.38;5156625;27;8827;-58
2022/11/13 07:26:59;;;;;;;;;2.80;2.60;;;;;4.06;74.51;100742.13;5157774;27;8907;-56
2022/11/13 07:29:27;;;;;;;;;4.40;4.40;;;;;4.10;74.67;100730.56;5138325;27;8907;-56
2022/11/13 07:31:54;;;;;;;;;1.80;1.80;;;;;4.14;75.01;100729.50;5138399;27;8842;-58
2022/11/13 07:34:23;;;;;;;;;1.00;0.40;;;;;4.20;74.96;100730.09;5138479;27;8822;-57
2022/11/13 07:36:50;;;;;;;;;3.20;3.00;;;;;4.27;74.19;100731.56;5138355;27;8825;-58
2022/11/13 07:39:18;;;;;;;;;3.40;1.80;;;;;4.36;73.93;100740.88;5138341;27;9526;-58
2022/11/13 07:41:45;;;;;;;;;4.00;3.40;;;;;4.45;73.84;100732.56;5136422;27;8833;-58
2022/11/13 07:44:13;;;;;;;;;3.00;3.00;;;;;4.54;74.41;100726.91;5137609;27;8813;-56
2022/11/13 07:47:04;;;;;;;;;8.60;6.00;;;;;4.60;73.57;100735.44;5138056;27;9555;-57
2022/11/13 07:49:32;;;;;;;;;3.60;3.60;;;;;4.65;73.61;100733.44;5138061;27;8890;-58
2022/11/13 07:51:59;;;;;;;;;1.80;1.80;;;;;4.70;73.61;100731.47;5137833;27;8894;-56
2022/11/13 07:54:27;;;;;;;;;1.00;1.00;;;;;4.80;73.93;100737.19;5151805;27;8819;-57
2022/11/13 07:56:55;;;;;;;;;4.00;3.40;;;;;4.86;73.39;100731.66;5138189;27;8825;-58
2022/11/13 07:59:24;;;;;;;;;2.60;2.60;;;;;4.90;73.95;100725.31;5137747;27;8820;-56
2022/11/13 08:01:52;;;;;;;;;2.60;2.60;;;;;4.92;72.94;100726.09;5136866;27;9488;-57
2022/11/13 08:04:20;;;;;;;;;0.80;0.80;;;;;4.94;73.05;100721.63;5136796;27;8840;-57
2022/11/13 08:06:48;;;;;;;;;1.00;1.00;;;;;4.97;73.83;100721.47;5136685;27;8821;-58
2022/11/13 08:09:16;;;;;;;;;1.00;1.00;;;;;4.98;73.35;100713.50;5137173;27;8863;-57
2022/11/13 08:11:46;;;;;;;;;1.00;1.00;;;;;4.99;73.69;100712.56;5136787;27;8828;-56
2022/11/13 08:14:13;;;;;;;;;3.00;1.40;;;;;5.00;73.22;100706.38;5136112;27;8817;-57
2022/11/13 08:16:41;;;;;;;;;3.00;1.00;;;;;5.04;73.59;100707.97;5135357;27;8844;-58
2022/11/13 08:19:09;;;;;;;;;0.00;0.00;;;;;5.11;73.17;100705.88;5135910;27;8846;-58
2022/11/13 08:21:37;;;;;;;;;3.00;3.00;;;;;5.20;73.54;100710.75;5136177;27;8818;-57
2022/11/13 08:24:06;;;;;;;;;5.60;4.40;;;;;5.29;73.27;100705.03;5150258;27;8950;-58
2022/11/13 08:26:34;;;;;;;;;6.60;4.00;;;;;5.40;72.63;100708.91;5136496;27;8829;-58
2022/11/13 08:29:01;;;;;;;;;4.00;4.00;;;;;5.54;73.03;100708.28;5137226;27;8798;-57
2022/11/13 08:31:30;;;;;;;;;6.80;6.80;;;;;5.66;72.40;100702.38;5137460;27;8813;-58
2022/11/13 08:33:58;;;;;;;;;4.20;4.20;;;;;5.73;72.32;100698.53;5136918;27;8829;-58
2022/11/13 08:36:26;;;;;;;;;5.20;4.00;;;;;5.80;72.49;100694.69;5136653;27;8818;-58
2022/11/13 08:38:54;;;;;;;;;7.40;7.40;;;;;5.86;72.23;100695.25;5136894;27;8858;-58
2022/11/13 08:41:22;;;;;;;;;5.20;4.00;;;;;5.90;71.96;100691.53;5136345;27;8814;-58
2022/11/13 08:43:49;;;;;;;;;7.00;6.60;;;;;5.94;71.86;100689.59;5136417;27;9803;-58
2022/11/13 08:46:17;;;;;;;;;5.20;4.00;;;;;6.04;71.67;100683.78;5136282;27;8817;-59
2022/11/13 08:48:47;;;;;;;;;3.80;3.80;;;;;6.13;71.78;100674.53;5136396;27;8821;-58
2022/11/13 08:51:15;;;;;;;;;4.80;4.80;;;;;6.18;71.53;100667.25;5136744;27;9616;-58
2022/11/13 08:53:43;;;;;;;;;3.20;3.20;;;;;6.27;71.16;100666.78;5136149;27;8810;-58
2022/11/13 08:56:10;;;;;;;;;5.20;4.40;;;;;6.32;71.25;100657.69;5136011;27;8833;-58
2022/11/13 08:58:38;;;;;;;;;5.60;5.60;;;;;6.38;71.23;100659.16;5135742;27;9704;-58
2022/11/13 09:01:09;;;;;;;;;6.00;6.00;;;;;6.45;71.46;100657.91;5135980;27;8801;-58
2022/11/13 09:03:37;;;;;;;;;3.40;3.20;;;;;6.54;71.09;100657.44;5135939;27;8901;-58
2022/11/13 09:06:05;;;;;;;;;4.60;4.60;;;;;6.59;71.17;100658.91;5135854;27;8892;-58
2022/11/13 09:08:32;;;;;;;;;6.00;6.00;;;;;6.66;71.13;100654.16;5135939;27;8866;-58
2022/11/13 09:11:00;;;;;;;;;6.60;6.40;;;;;6.72;70.69;100653.81;5136069;27;8830;-59
2022/11/13 09:13:30;;;;;;;;;7.40;6.80;;;;;6.80;71.07;100662.22;5135849;27;8818;-58
2022/11/13 09:15:57;;;;;;;;;5.20;3.40;;;;;6.90;70.89;100659.00;5135232;27;8842;-58
2022/11/13 09:18:25;;;;;;;;;6.20;6.00;;;;;7.03;70.84;100659.19;5135181;27;8971;-58
2022/11/13 09:20:54;;;;;;;;;3.80;3.60;;;;;7.18;70.41;100648.63;5139967;27;8829;-58
2022/11/13 09:23:22;;;;;;;;;4.00;3.00;;;;;7.35;69.75;100645.91;5147387;27;8879;-58
2022/11/13 09:25:50;;;;;;;;;4.40;4.00;;;;;7.49;69.80;100639.88;5160044;27;8823;-59
2022/11/13 09:28:18;;;;;;;;;3.00;1.80;;;;;7.65;69.30;100640.72;5156633;27;8847;-59
2022/11/13 09:30:46;;;;;;;;;9.00;7.00;;;;;7.79;69.18;100631.88;5140359;27;8830;-58
2022/11/13 09:33:14;;;;;;;;;4.00;3.60;;;;;7.94;68.88;100632.78;5140227;27;8832;-59
2022/11/13 09:35:42;;;;;;;;;5.20;3.00;;;;;8.08;68.47;100635.50;5139827;27;8906;-57
2022/11/13 09:38:13;;;;;;;;;6.60;6.40;;;;;8.22;68.63;100628.47;5139821;27;8848;-59
2022/11/13 09:40:41;;;;;;;;;3.40;3.00;;;;;8.39;68.49;100628.34;5140266;27;8821;-59
2022/11/13 09:43:09;;;;;;;;;5.20;4.00;;;;;8.57;68.14;100623.69;5140106;27;8832;-58
2022/11/13 09:45:37;;;;;;;;;4.50;4.50;;;;;8.78;67.82;100628.56;5140064;27;9469;-58
2022/11/13 09:48:05;;;;;;;;;3.75;3.75;;;;;9.08;67.65;100621.34;5140242;27;8821;-58
2022/11/13 09:50:34;;;;;;;;;5.50;5.50;;;;;9.43;66.76;100619.97;5139928;27;8841;-58
2022/11/13 09:53:02;;;;;;;;;4.00;4.00;;;;;9.82;66.51;100609.41;5139808;27;8816;-58
2022/11/13 09:55:31;;;;;;;;;3.75;3.50;;;;;10.31;65.52;100601.69;5139483;27;8825;-59
2022/11/13 09:57:58;;;;;;;;;4.50;4.00;;;;;10.94;64.55;100599.91;5139470;27;8845;-59
2022/11/13 10:00:27;;;;;;;;;3.75;3.50;;;;;11.90;62.61;100595.47;5139288;27;8801;-59
2022/11/13 10:02:57;;;;;;;;;3.50;3.50;;;;;13.07;60.13;100596.00;5139490;27;8821;-59
2022/11/13 10:05:25;;;;;;;;;4.00;4.00;;;;;14.29;58.16;100577.84;5139312;27;8825;-59
2022/11/13 10:07:53;;;;;;;;;4.00;3.75;;;;;15.36;55.76;100578.16;5139263;27;8848;-58
2022/11/13 10:10:21;;;;;;;;;3.50;3.50;;;;;16.02;54.77;100571.19;5139390;27;8964;-58
2022/11/13 10:12:49;;;;;;;;;4.50;4.00;;;;;16.42;54.35;100570.91;5139277;27;8825;-58
2022/11/13 10:15:18;;;;;;;;;4.00;4.00;;;;;16.62;54.35;100567.19;5139476;27;9526;-59
2022/11/13 10:17:46;;;;;;;;;4.00;4.00;;;;;16.82;54.74;100559.94;5139342;27;8825;-59
2022/11/13 10:20:15;;;;;;;;;5.00;4.50;;;;;16.78;55.35;100551.28;5139119;27;8952;-59
2022/11/13 10:22:43;;;;;;;;;4.40;4.00;;;;;16.58;56.44;100563.13;5139011;27;8825;-58
2022/11/13 10:25:12;;;;;;;;;4.00;3.00;;;;;16.30;57.11;100563.97;5138048;27;8810;-58
2022/11/13 10:27:42;;;;;;;;;2.80;2.80;;;;;15.97;58.17;100555.50;5137598;27;8964;-59
2022/11/13 10:30:11;;;;;;;;;4.40;4.40;;;;;15.70;59.15;100560.69;5137215;27;8893;-59
2022/11/13 10:32:38;;;;;;;;;4.50;4.00;;;;;15.49;59.46;100561.81;5138213;27;8909;-59
2022/11/13 10:35:06;;;;;;;;;4.00;4.00;;;;;15.42;60.04;100571.38;5138304;27;8837;-59
2022/11/13 10:37:35;;;;;;;;;7.00;6.25;;;;;15.45;60.17;100563.03;5137699;27;8833;-59
2022/11/13 10:40:04;;;;;;;;;1.00;1.00;;;;;15.46;59.87;100552.19;5137864;27;8844;-59
2022/11/13 10:42:34;;;;;;;;;4.00;4.00;;;;;15.49;59.87;100548.38;5138091;27;8817;-59
2022/11/13 10:45:02;;;;;;;;;1.00;1.00;;;;;15.62;59.88;100555.19;5138013;27;9570;-59
2022/11/13 10:47:36;;;;;;;;;3.50;3.00;;;;;15.73;59.89;100546.16;5137992;27;8825;-58
2022/11/13 10:50:25;;;;;;;;;3.00;3.00;;;;;16.17;58.94;100541.09;5138266;27;9631;-59
2022/11/13 10:52:53;;;;;;;;;3.80;3.40;;;;;16.78;57.21;100527.09;5137941;27;8868;-59
2022/11/13 10:55:21;;;;;;;;;3.00;3.00;;;;;17.21;56.72;100524.63;5137653;27;8829;-59
2022/11/13 10:57:49;;;;;;;;;2.20;2.20;;;;;17.38;56.38;100513.09;5137873;27;9596;-59
2022/11/13 11:00:23;;;;;;;;;0.00;0.00;;;;;17.34;57.04;100508.13;5138123;27;8798;-59
2022/11/13 11:02:53;;;;;;;;;2.20;2.20;;;;;17.17;56.98;100509.78;5136991;27;8860;-59
2022/11/13 11:05:21;;;;;;;;;3.00;3.00;;;;;16.97;57.44;100510.88;5138040;27;8822;-59
2022/11/13 11:07:49;;;;;;;;;4.00;4.00;;;;;16.76;58.41;100515.63;5137796;27;8856;-59
2022/11/13 11:10:18;;;;;;;;;3.00;3.00;;;;;16.58;58.81;100503.97;5136963;27;8828;-58
2022/11/13 11:12:46;;;;;;;;;3.00;3.00;;;;;16.38;59.02;100505.00;5137699;27;8910;-59
2022/11/13 11:15:15;;;;;;;;;4.80;4.00;;;;;16.17;59.57;100495.41;5137364;27;8848;-59
2022/11/13 11:17:43;;;;;;;;;1.80;1.00;;;;;16.06;59.76;100502.72;5137542;27;8910;-59
2022/11/13 11:20:11;;;;;;;;;3.00;3.00;;;;;15.92;60.01;100501.34;5138052;27;8965;-59
2022/11/13 11:22:40;;;;;;;;;1.80;1.80;;;;;15.81;60.47;100489.88;5137789;27;8860;-59
2022/11/13 11:25:09;;;;;;;;;3.00;3.00;;;;;15.71;60.62;100486.38;5138180;27;8814;-59
2022/11/13 11:27:38;;;;;;;;;4.00;3.00;;;;;15.59;60.60;100482.13;5138452;27;8830;-59
2022/11/13 11:30:06;;;;;;;;;1.00;1.00;;;;;15.55;61.44;100476.16;5138084;27;8836;-59
2022/11/13 11:32:34;;;;;;;;;0.50;0.50;;;;;15.59;60.67;100468.69;5137801;27;8878;-59
2022/11/13 11:35:02;;;;;;;;;1.40;1.40;;;;;15.69;60.15;100474.94;5137332;27;8826;-59
2022/11/13 11:37:30;;;;;;;;;1.00;1.00;;;;;15.82;59.97;100473.66;5136123;27;8918;-59
2022/11/13 11:39:58;;;;;;;;;1.40;1.40;;;;;15.91;59.90;100472.78;5136929;27;8952;-59
2022/11/13 11:42:26;;;;;;;;;1.00;1.00;;;;;15.97;59.82;100472.22;5135849;27;8829;-59
2022/11/13 11:44:54;;;;;;;;;1.00;1.00;;;;;16.00;59.88;100465.72;5136657;27;8837;-59
2022/11/13 11:47:22;;;;;;;;;0.00;0.00;;;;;16.04;59.94;100459.91;5136808;27;8925;-59
2022/11/13 11:49:50;;;;;;;;;0.60;0.60;;;;;16.07;59.68;100469.53;5136892;27;9565;-59